createdAt,value
2022-08-09T00:01:55.455Z,396
2022-08-09T00:12:37.518Z,615
2022-08-09T00:21:32.304Z,495
2022-08-09T00:29:40.062Z,504
2022-08-09T00:40:02.056Z,516
2022-08-09T00:50:38.783Z,627
2022-08-09T00:59:40.324Z,543
2022-08-09T01:08:12.111Z,549
2022-08-09T01:15:54.632Z,468
2022-08-09T01:24:39.035Z,642
2022-08-09T01:33:39.173Z,636
2022-08-09T01:41:53.877Z,462
2022-08-09T01:49:54.604Z,663
2022-08-09T01:57:53.189Z,675
2022-08-09T02:06:54.223Z,675
2022-08-09T02:16:33.995Z,615
2022-08-09T02:25:42.106Z,576
2022-08-09T02:33:58.645Z,732
2022-08-09T02:42:51.418Z,684
2022-08-09T02:50:54.336Z,540
2022-08-09T02:59:57.906Z,615
2022-08-09T03:09:42.726Z,639
2022-08-09T03:18:43.756Z,441
2022-08-09T03:28:18.958Z,690
2022-08-09T03:36:58.404Z,714
2022-08-09T03:46:03.786Z,543
2022-08-09T03:54:47.209Z,630
2022-08-09T04:03:02.671Z,708
2022-08-09T04:12:40.406Z,663
2022-08-09T04:22:27.903Z,729
2022-08-09T04:30:26.349Z,612
2022-08-09T04:38:52.428Z,849
2022-08-09T04:47:33.101Z,684
2022-08-09T04:55:57.587Z,705
2022-08-09T05:04:15.955Z,705
2022-08-09T05:12:40.034Z,834
2022-08-09T05:22:03.718Z,942
2022-08-09T05:31:23.499Z,822
2022-08-09T05:39:35.923Z,693
2022-08-09T05:47:40.899Z,804
2022-08-09T05:57:06.868Z,855
2022-08-09T06:05:07.817Z,624
2022-08-09T06:13:53.475Z,621
2022-08-09T06:21:32.462Z,510
2022-08-09T06:29:26.927Z,489
2022-08-09T06:38:38.776Z,603
2022-08-09T06:48:00.936Z,435
2022-08-09T06:56:23.692Z,447
2022-08-09T07:07:59.166Z,489
2022-08-09T07:18:36.081Z,489
2022-08-09T07:27:01.599Z,576
2022-08-09T07:35:39.663Z,369
2022-08-09T07:44:14.978Z,384
2022-08-09T07:53:16.798Z,456
2022-08-09T08:02:55.039Z,381
2022-08-09T08:13:28.078Z,339
2022-08-09T08:21:41.962Z,417
2022-08-09T08:30:24.541Z,309
2022-08-09T08:38:52.362Z,438
2022-08-09T08:47:12.184Z,330
2022-08-09T08:55:56.898Z,300
2022-08-09T09:04:26.710Z,402
2022-08-09T09:13:11.574Z,360
2022-08-09T09:21:43.097Z,405
2022-08-09T09:33:14.014Z,306
2022-08-09T09:41:39.863Z,279
2022-08-09T09:50:49.870Z,390
2022-08-09T10:00:30.134Z,264
2022-08-09T10:09:54.402Z,312
2022-08-09T10:20:10.807Z,264
2022-08-09T10:28:34.730Z,258
2022-08-09T10:39:49.791Z,249
2022-08-09T10:48:54.059Z,195
2022-08-09T10:57:07.811Z,240
2022-08-09T11:07:17.618Z,315
2022-08-09T11:15:50.711Z,270
2022-08-09T11:24:10.153Z,342
2022-08-09T11:33:00.629Z,288
2022-08-09T11:41:20.542Z,276
2022-08-09T11:49:27.932Z,321
2022-08-09T12:00:29.615Z,249
2022-08-09T12:10:07.153Z,306
2022-08-09T12:19:36.955Z,291
2022-08-09T12:30:41.255Z,267
2022-08-09T12:39:49.116Z,390
2022-08-09T12:47:58.152Z,285
2022-08-09T12:57:38.672Z,249
2022-08-09T13:06:50.271Z,303
2022-08-09T13:15:51.526Z,240
2022-08-09T13:26:41.229Z,240
2022-08-09T13:37:12.673Z,366
2022-08-09T13:49:56.603Z,246
2022-08-09T13:58:12.037Z,189
2022-08-09T14:08:23.863Z,321
2022-08-09T14:18:38.135Z,210
2022-08-09T14:27:03.212Z,201
2022-08-09T14:36:26.739Z,234
2022-08-09T14:46:40.737Z,258
2022-08-09T14:54:47.924Z,300
2022-08-09T15:02:35.493Z,330
2022-08-09T15:11:00.144Z,201
2022-08-09T15:18:33.189Z,273
2022-08-09T15:29:08.727Z,267
2022-08-09T15:40:47.377Z,225
2022-08-09T15:50:00.914Z,273
2022-08-09T16:00:13.982Z,381
2022-08-09T16:09:06.787Z,318
2022-08-09T16:18:38.157Z,354
2022-08-09T16:27:11.977Z,309
2022-08-09T16:36:32.014Z,369
2022-08-09T16:45:10.901Z,330
2022-08-09T16:55:44.516Z,357
2022-08-09T17:03:56.739Z,345
2022-08-09T17:14:38.041Z,357
2022-08-09T17:25:02.875Z,351
2022-08-09T17:33:22.183Z,585
2022-08-09T17:43:33.373Z,606
2022-08-09T17:52:29.436Z,516
2022-08-09T18:00:46.779Z,342
2022-08-09T18:09:24.049Z,231
2022-08-09T18:21:40.800Z,513
2022-08-09T18:33:53.330Z,423
2022-08-09T18:42:36.471Z,327
2022-08-09T18:51:54.813Z,327
2022-08-09T19:00:28.507Z,438
2022-08-09T19:09:34.274Z,489
2022-08-09T19:18:49.802Z,426
2022-08-09T19:28:28.758Z,612
2022-08-09T19:37:54.713Z,405
2022-08-09T19:47:09.481Z,441
2022-08-09T19:57:19.261Z,393
2022-08-09T20:08:33.657Z,432
2022-08-09T20:19:03.864Z,429
2022-08-09T20:27:52.175Z,351
2022-08-09T20:36:28.076Z,633
2022-08-09T20:48:21.024Z,471
2022-08-09T20:56:35.672Z,324
2022-08-09T21:08:23.278Z,363
2022-08-09T21:19:01.568Z,360
2022-08-09T21:28:33.232Z,435
2022-08-09T21:36:37.902Z,405
2022-08-09T21:46:30.108Z,360
2022-08-09T21:54:50.718Z,522
2022-08-09T22:04:37.631Z,525
2022-08-09T22:14:53.740Z,531
2022-08-09T22:23:35.016Z,498
2022-08-09T22:32:31.550Z,606
2022-08-09T22:42:28.233Z,477
2022-08-09T22:53:44.537Z,510
2022-08-09T23:04:02.947Z,606
2022-08-09T23:11:56.300Z,573
2022-08-09T23:20:01.282Z,555
2022-08-09T23:27:37.553Z,645
2022-08-09T23:36:04.175Z,648
2022-08-09T23:43:33.176Z,615
2022-08-09T23:51:26.438Z,702
